createdAt,value
2022-08-09T00:07:55.629Z,26.2
2022-08-09T00:18:04.781Z,26.2
2022-08-09T00:27:59.522Z,26.1
2022-08-09T00:38:02.931Z,26.1
2022-08-09T00:48:04.285Z,26
2022-08-09T00:58:06.677Z,26
2022-08-09T01:08:08.516Z,25.9
2022-08-09T01:18:14.357Z,25.9
2022-08-09T01:38:15.823Z,25.8
2022-08-09T01:48:17.758Z,25.7
2022-08-09T01:58:24.072Z,25.6
2022-08-09T02:08:36.515Z,25.6
2022-08-09T02:18:24.815Z,25.5
2022-08-09T02:28:27.430Z,25.5
2022-08-09T02:38:29.851Z,25.5
2022-08-09T02:48:32.194Z,25.4
2022-08-09T02:58:37.310Z,25.4
2022-08-09T03:08:36.810Z,25.3
2022-08-09T03:18:38.638Z,25.3
2022-08-09T03:28:40.373Z,25.2
2022-08-09T03:38:42.909Z,25.2
2022-08-09T03:48:51.123Z,25.1
2022-08-09T03:58:47.133Z,25.1
2022-08-09T04:08:49.062Z,25
2022-08-09T04:18:51.402Z,24.9
2022-08-09T04:28:56.185Z,24.9
2022-08-09T04:48:57.787Z,24.8
2022-08-09T04:58:58.493Z,24.7
2022-08-09T05:09:01.382Z,24.7
2022-08-09T05:19:02.807Z,24.6
2022-08-09T05:49:13.665Z,24.6
2022-08-09T06:49:22.821Z,24.8
2022-08-09T07:00:53.210Z,24.9
2022-08-09T07:19:29.260Z,25.2
2022-08-09T07:49:35.553Z,25.7
2022-08-09T07:59:46.040Z,25.8
2022-08-09T08:09:46.079Z,25.9
2022-08-09T08:19:42.688Z,26
2022-08-09T08:59:53.764Z,26.3
2022-08-09T09:09:58.877Z,26.3
2022-08-09T10:00:04.892Z,26.5
2022-08-09T10:31:15.824Z,26.5
2022-08-09T11:00:17.734Z,26.5
2022-08-09T11:40:27.486Z,26.6
2022-08-09T11:50:54.497Z,26.6
2022-08-09T12:10:54.084Z,26.6
2022-08-09T12:30:43.477Z,26.6
2022-08-09T12:40:45.491Z,26.7
2022-08-09T13:00:49.824Z,26.7
2022-08-09T13:10:52.264Z,26.7
2022-08-09T13:21:04.638Z,26.7
2022-08-09T13:31:53.579Z,26.7
2022-08-09T13:41:21.975Z,26.7
2022-08-09T13:51:00.717Z,26.7
2022-08-09T14:01:02.637Z,26.7
2022-08-09T14:11:09.928Z,26.7
2022-08-09T14:21:07.494Z,26.7
2022-08-09T14:31:09.248Z,26.7
2022-08-09T14:41:24.174Z,26.8
2022-08-09T14:51:14.310Z,26.8
2022-08-09T15:01:16.932Z,26.8
2022-08-09T15:11:18.753Z,26.8
2022-08-09T15:21:59.107Z,26.8
2022-08-09T15:31:22.453Z,26.8
2022-08-09T15:51:30.619Z,26.8
2022-08-09T16:01:31.246Z,26.8
2022-08-09T16:11:30.831Z,26.8
2022-08-09T16:21:34.932Z,26.8
2022-08-09T16:31:38.229Z,26.8
2022-08-09T16:41:39.503Z,26.8
2022-08-09T16:51:38.517Z,26.8
2022-08-09T17:01:42.121Z,26.8
2022-08-09T17:11:43.513Z,26.8
2022-08-09T17:21:46.575Z,26.8
2022-08-09T17:31:48.999Z,26.9
2022-08-09T17:41:49.027Z,26.9
2022-08-09T17:51:51.126Z,26.9
2022-08-09T18:02:04.026Z,26.9
2022-08-09T18:12:06.008Z,26.9
2022-08-09T18:21:56.856Z,26.9
2022-08-09T18:31:59.348Z,26.9
2022-08-09T18:42:01.415Z,26.9
2022-08-09T18:52:03.614Z,26.9
2022-08-09T19:02:06.057Z,26.9
2022-08-09T19:12:08.098Z,26.9
2022-08-09T19:22:10.581Z,26.9
2022-08-09T19:42:19.291Z,26.9
2022-08-09T20:04:24.444Z,26.9
2022-08-09T20:12:27.269Z,26.9
2022-08-09T20:22:31.116Z,26.9
2022-08-09T20:32:31.577Z,26.9
2022-08-09T20:42:26.897Z,26.8
2022-08-09T20:52:28.597Z,26.8
2022-08-09T21:02:30.502Z,26.8
2022-08-09T21:12:32.420Z,26.8
2022-08-09T21:32:37.181Z,26.8
2022-08-09T21:52:41.629Z,26.7
2022-08-09T22:02:43.671Z,26.7
2022-08-09T22:12:49.883Z,26.7
2022-08-09T22:22:48.575Z,26.6
2022-08-09T22:32:50.167Z,26.6
2022-08-09T22:42:52.339Z,26.6
2022-08-09T22:52:55.013Z,26.6
2022-08-09T23:02:56.203Z,26.5
2022-08-09T23:12:58.382Z,26.5
2022-08-09T23:23:00.154Z,26.5
2022-08-09T23:33:02.692Z,26.5
2022-08-09T23:43:05.269Z,26.4
2022-08-09T23:53:07.839Z,26.4
